createdAt,value
2019-03-06T09:18:08.784Z,21.80
2019-03-06T09:20:40.735Z,23.50
2019-03-06T09:23:11.733Z,20.70
2019-03-06T09:25:42.039Z,16.80
2019-03-06T09:28:12.115Z,17.00
2019-03-06T09:30:53.339Z,15.50
2019-03-06T09:46:23.454Z,13.70
2019-03-06T09:48:54.026Z,5.10
2019-03-06T09:51:30.245Z,4.50
2019-03-06T09:54:12.053Z,4.30
2019-03-06T09:56:42.141Z,3.60
2019-03-06T09:59:29.980Z,2.10
2019-03-06T10:02:06.833Z,1.40
2019-03-06T10:04:44.002Z,1.20
2019-03-06T10:07:22.958Z,1.00
2019-03-06T10:09:59.449Z,1.00
2019-03-06T10:12:35.443Z,1.00
2019-03-06T10:15:07.150Z,1.00
2019-03-06T10:17:46.353Z,1.00
2019-03-06T10:20:24.899Z,1.00
2019-03-06T10:22:48.965Z,1.00
2019-03-06T10:25:17.586Z,1.00
2019-03-06T10:27:46.175Z,1.00
2019-03-06T10:30:15.894Z,1.00
2019-03-06T10:32:44.603Z,1.00
2019-03-06T10:35:15.666Z,1.00
2019-03-06T10:37:44.167Z,1.00
2019-03-06T10:40:17.737Z,1.00
2019-03-06T10:42:46.299Z,1.00
2019-03-06T10:45:18.392Z,1.00
2019-03-06T10:47:47.519Z,1.00
2019-03-06T10:50:26.582Z,1.00
2019-03-06T10:52:51.697Z,1.00
2019-03-06T10:55:20.418Z,1.00
2019-03-06T10:57:49.147Z,1.00
2019-03-06T11:00:22.050Z,1.00
2019-03-06T11:02:51.090Z,1.00
2019-03-06T11:05:22.335Z,1.00
2019-03-06T11:07:51.050Z,1.00
2019-03-06T11:10:23.800Z,1.00
2019-03-06T11:12:50.136Z,1.00
2019-03-06T11:15:20.639Z,1.00
2019-03-06T11:17:49.527Z,1.00
2019-03-06T11:20:27.285Z,1.00
2019-03-06T11:22:57.250Z,1.00
2019-03-06T11:25:27.507Z,1.00
2019-03-06T11:27:56.180Z,1.00
2019-03-06T11:30:28.013Z,1.00
2019-03-06T11:32:57.375Z,1.00
2019-03-06T11:35:26.202Z,1.00
2019-03-06T11:37:54.847Z,1.00
2019-03-06T11:40:23.666Z,1.00
2019-03-06T11:42:52.187Z,1.00
2019-03-06T11:45:20.674Z,1.00
2019-03-06T11:47:49.386Z,1.00
2019-03-06T11:50:19.175Z,1.00
2019-03-06T11:52:47.739Z,1.00
2019-03-06T11:55:17.482Z,1.00
2019-03-06T11:57:46.051Z,1.00
2019-03-06T12:00:38.789Z,2.40
2019-03-06T12:03:07.614Z,2.30
2019-03-06T12:05:37.710Z,3.80
2019-03-06T12:08:09.574Z,3.70
2019-03-06T12:10:38.322Z,5.00
2019-03-06T12:13:09.509Z,5.60
2019-03-06T12:15:38.437Z,5.10
2019-03-06T12:18:07.118Z,4.20
2019-03-06T12:20:35.686Z,4.60
2019-03-06T12:23:05.309Z,4.90
2019-03-06T12:25:34.472Z,5.00
2019-03-06T12:28:03.326Z,3.70
2019-03-06T12:30:32.549Z,3.40
2019-03-06T12:33:01.218Z,3.70
2019-03-06T12:35:29.649Z,3.90
2019-03-06T12:37:58.058Z,3.60
2019-03-06T12:40:28.923Z,4.10
2019-03-06T12:42:57.584Z,4.70
2019-03-06T12:45:27.332Z,4.60
2019-03-06T12:48:01.710Z,4.60
2019-03-06T12:50:38.358Z,5.00
2019-03-06T12:53:07.130Z,4.40
2019-03-06T12:55:35.823Z,3.60
2019-03-06T12:58:05.884Z,2.90
2019-03-06T13:00:34.922Z,3.20
2019-03-06T13:03:03.645Z,3.50
2019-03-06T13:05:34.838Z,1.90
2019-03-06T13:08:03.264Z,2.30
2019-03-06T13:10:31.681Z,3.00
2019-03-06T13:13:00.485Z,2.30
2019-03-06T13:15:28.955Z,3.30
2019-03-06T13:17:57.518Z,3.10
2019-03-06T13:20:26.070Z,1.90
2019-03-06T13:22:54.930Z,3.50
2019-03-06T13:25:24.101Z,3.80
2019-03-06T13:27:54.931Z,4.40
2019-03-06T13:30:24.391Z,3.80
2019-03-06T13:33:10.734Z,4.00
2019-03-06T13:35:40.570Z,5.00
2019-03-06T13:38:09.067Z,3.00
2019-03-06T13:40:37.474Z,3.50
2019-03-06T13:43:05.974Z,3.80
2019-03-06T13:45:34.458Z,3.60
2019-03-06T13:48:02.882Z,4.50
2019-03-06T13:50:31.585Z,5.80
2019-03-06T13:53:00.058Z,5.30
2019-03-06T13:55:28.534Z,6.10
2019-03-06T13:57:57.404Z,6.20
2019-03-06T14:00:26.018Z,5.00
2019-03-06T14:02:54.448Z,5.40
2019-03-06T14:05:23.609Z,6.00
2019-03-06T14:07:56.229Z,5.60
2019-03-06T14:10:26.055Z,4.40
2019-03-06T14:12:54.793Z,4.20
2019-03-06T14:15:23.344Z,3.50
2019-03-06T14:17:52.058Z,3.80
2019-03-06T14:20:22.325Z,5.10
2019-03-06T14:22:51.523Z,5.60
2019-03-06T14:25:21.051Z,5.00
2019-03-06T14:27:49.722Z,5.20
2019-03-06T14:30:26.379Z,5.80
2019-03-06T14:32:54.840Z,6.30
2019-03-06T14:35:23.565Z,6.60
2019-03-06T14:37:52.317Z,6.70
2019-03-06T14:40:29.672Z,7.30
2019-03-06T14:42:59.090Z,7.70
2019-03-06T14:45:27.814Z,7.50
